Garcia Miguel — CUGT9 — position and weather

sailwx.info

Track history (hours):
 
Tides and Currents Weather Stations Pressure Air Temp Water Temp Dewpoint Dewpoint Depression Visibility Wind Speed Wind Dir Waves Ship Positions

Garcia Miguel

Last reported at 2018-May-09 22:29 UTC. Time now 2018-May-26 14:09 UTC.
Position N 38°29' W 009°43'.
Warning: this ship's position is 16 days out of date.

Length 20 m.

Type: Fishing. MMSI: 263500286.

Date/timePositionNaut miles runAvg speedWind from/ knotsBaromVisibWave heightAir tempDewpointWater temp
2018-May-09 22:29N 38°29' W 009°43'4 7.4
2018-May-09 21:59N 38°32' W 009°43'4 7.4
2018-May-09 21:30N 38°36' W 009°42'4 7.3
2018-May-09 21:00N 38°40' W 009°41'4 7.3
2018-May-09 20:30N 38°43' W 009°39'4 7.2
2018-May-09 20:00N 38°46' W 009°38'4 7.3
2018-May-09 19:30N 38°50' W 009°36'4 7.3
2018-May-09 19:00N 38°53' W 009°34'4 7.5
2018-May-09 18:30N 38°57' W 009°33'4 7.3
2018-May-09 18:00N 39°00' W 009°31'4 7.5
2018-May-09 17:30N 39°04' W 009°29'4 7.6
2018-May-09 17:00N 39°07' W 009°28'4 7.6
2018-May-09 16:28N 39°11' W 009°26'  
2018-May-05 07:46N 39°21' W 009°25'2 7.0
2018-May-05 07:28N 39°21' W 009°28'3 6.7
2018-May-05 07:00N 39°22' W 009°32'3 6.4
2018-May-05 06:30N 39°23' W 009°36'26 7.4
2018-May-05 02:59N 39°34' W 010°06'4 7.5
2018-May-05 02:29N 39°35' W 010°10'4 7.4
2018-May-05 02:00N 39°37' W 010°14'  
Track history (hours):
 
Tides and Currents Weather Stations Pressure Air Temp Water Temp Dewpoint Dewpoint Depression Visibility Wind Speed Wind Dir Waves Ship Positions

Garcia Miguel

Last reported at 2018-May-09 22:29 UTC. Time now 2018-May-26 14:09 UTC.
Position N 38°29' W 009°43'.
Warning: this ship's position is 16 days out of date.

Length 20 m.

Type: Fishing. MMSI: 263500286.

Date/timePositionNaut miles runAvg speedWind from/ knotsBaromVisibWave heightAir tempDewpointWater temp
2018-May-09 22:29N 38°29' W 009°43'4 7.4
2018-May-09 21:59N 38°32' W 009°43'4 7.4
2018-May-09 21:30N 38°36' W 009°42'4 7.3
2018-May-09 21:00N 38°40' W 009°41'4 7.3
2018-May-09 20:30N 38°43' W 009°39'4 7.2
2018-May-09 20:00N 38°46' W 009°38'4 7.3
2018-May-09 19:30N 38°50' W 009°36'4 7.3
2018-May-09 19:00N 38°53' W 009°34'4 7.5
2018-May-09 18:30N 38°57' W 009°33'4 7.3
2018-May-09 18:00N 39°00' W 009°31'4 7.5
2018-May-09 17:30N 39°04' W 009°29'4 7.6
2018-May-09 17:00N 39°07' W 009°28'4 7.6
2018-May-09 16:28N 39°11' W 009°26'  
2018-May-05 07:46N 39°21' W 009°25'2 7.0
2018-May-05 07:28N 39°21' W 009°28'3 6.7
2018-May-05 07:00N 39°22' W 009°32'3 6.4
2018-May-05 06:30N 39°23' W 009°36'26 7.4
2018-May-05 02:59N 39°34' W 010°06'4 7.5
2018-May-05 02:29N 39°35' W 010°10'4 7.4
2018-May-05 02:00N 39°37' W 010°14'  

Dump ship's entire track history